createdAt,value
2023-10-09T00:00:52.250Z,100.00
2023-10-09T00:03:24.631Z,100.00
2023-10-09T00:05:57.195Z,100.00
2023-10-09T00:08:31.773Z,100.00
2023-10-09T00:11:14.972Z,100.00
2023-10-09T00:13:50.558Z,100.00
2023-10-09T00:16:34.658Z,100.00
2023-10-09T00:19:15.889Z,100.00
2023-10-09T00:21:46.532Z,100.00
2023-10-09T00:24:25.192Z,100.00
2023-10-09T00:26:57.296Z,100.00
2023-10-09T00:29:29.723Z,100.00
2023-10-09T00:32:17.039Z,100.00
2023-10-09T00:34:51.825Z,100.00
2023-10-09T00:37:24.695Z,100.00
2023-10-09T00:39:59.720Z,100.00
2023-10-09T00:42:34.636Z,100.00
2023-10-09T00:45:06.421Z,100.00
2023-10-09T00:47:42.489Z,100.00
2023-10-09T00:50:22.598Z,100.00
2023-10-09T00:53:02.730Z,100.00
2023-10-09T00:55:46.457Z,100.00
2023-10-09T00:58:25.212Z,100.00
2023-10-09T01:00:57.370Z,100.00
2023-10-09T01:03:34.860Z,100.00
2023-10-09T01:06:22.447Z,100.00
2023-10-09T01:09:10.622Z,100.00
2023-10-09T01:11:49.317Z,100.00
2023-10-09T01:14:22.693Z,100.00
2023-10-09T01:16:55.993Z,100.00
2023-10-09T01:19:29.251Z,100.00
2023-10-09T01:22:05.779Z,100.00
2023-10-09T01:24:40.225Z,100.00
2023-10-09T01:27:16.902Z,100.00
2023-10-09T01:29:48.178Z,100.00
2023-10-09T01:32:21.167Z,100.00
2023-10-09T01:34:52.744Z,100.00
2023-10-09T01:37:29.362Z,100.00
2023-10-09T01:40:24.765Z,100.00
2023-10-09T01:42:55.660Z,100.00
2023-10-09T01:45:31.448Z,100.00
2023-10-09T01:48:06.850Z,100.00
2023-10-09T01:50:38.354Z,100.00
2023-10-09T01:53:09.552Z,100.00
2023-10-09T01:55:47.004Z,100.00
2023-10-09T01:58:25.925Z,100.00
2023-10-09T02:00:58.260Z,100.00
2023-10-09T02:03:30.866Z,100.00
2023-10-09T02:06:02.004Z,100.00
2023-10-09T02:08:36.746Z,100.00
2023-10-09T02:11:15.813Z,100.00
2023-10-09T02:13:48.701Z,100.00
2023-10-09T02:16:29.733Z,100.00
2023-10-09T02:19:00.556Z,100.00
2023-10-09T02:21:35.443Z,100.00
2023-10-09T02:24:10.708Z,100.00
2023-10-09T02:26:58.797Z,100.00
2023-10-09T02:29:29.212Z,100.00
2023-10-09T02:32:10.765Z,100.00
2023-10-09T02:34:41.035Z,100.00
2023-10-09T02:37:14.512Z,100.00
2023-10-09T02:39:49.603Z,100.00
2023-10-09T02:42:28.069Z,100.00
2023-10-09T02:45:01.327Z,100.00
2023-10-09T02:47:39.625Z,100.00
2023-10-09T02:50:20.829Z,100.00
2023-10-09T02:52:54.785Z,100.00
2023-10-09T02:55:29.286Z,100.00
2023-10-09T02:58:12.013Z,100.00
2023-10-09T03:00:45.888Z,100.00
2023-10-09T03:03:18.474Z,100.00
2023-10-09T03:05:51.303Z,100.00
2023-10-09T03:08:21.879Z,100.00
2023-10-09T03:10:52.183Z,100.00
2023-10-09T03:13:25.113Z,100.00
2023-10-09T03:15:55.397Z,100.00
2023-10-09T03:18:25.805Z,100.00
2023-10-09T03:20:57.562Z,100.00
2023-10-09T03:23:27.887Z,100.00
2023-10-09T03:26:10.796Z,100.00
2023-10-09T03:28:53.824Z,100.00
2023-10-09T03:31:24.322Z,100.00
2023-10-09T03:33:54.741Z,100.00
2023-10-09T03:36:28.093Z,100.00
2023-10-09T03:38:59.511Z,100.00
2023-10-09T03:41:30.545Z,100.00
2023-10-09T03:44:03.568Z,100.00
2023-10-09T03:46:38.234Z,100.00
2023-10-09T03:49:12.410Z,100.00
2023-10-09T03:51:43.915Z,100.00
2023-10-09T03:54:15.425Z,100.00
2023-10-09T03:56:46.094Z,100.00
2023-10-09T03:59:18.951Z,100.00
2023-10-09T04:01:50.138Z,100.00
2023-10-09T04:04:24.253Z,100.00
2023-10-09T04:06:55.737Z,100.00
2023-10-09T04:09:41.180Z,100.00
2023-10-09T04:12:22.705Z,100.00
2023-10-09T04:14:59.359Z,100.00
2023-10-09T04:17:44.624Z,100.00
2023-10-09T04:20:27.838Z,100.00
2023-10-09T04:23:06.930Z,100.00
2023-10-09T04:25:52.280Z,100.00
2023-10-09T04:28:25.273Z,100.00
2023-10-09T04:31:00.353Z,100.00
2023-10-09T04:33:42.229Z,100.00
2023-10-09T04:36:23.530Z,100.00
2023-10-09T04:39:17.459Z,100.00
2023-10-09T04:42:16.794Z,100.00
2023-10-09T04:45:01.428Z,100.00
2023-10-09T04:47:50.946Z,100.00
2023-10-09T04:50:33.753Z,100.00
2023-10-09T04:53:23.712Z,100.00
2023-10-09T04:56:06.117Z,100.00
2023-10-09T04:58:40.742Z,100.00
2023-10-09T05:01:17.672Z,100.00
2023-10-09T05:03:58.366Z,100.00
2023-10-09T05:06:56.109Z,100.00
2023-10-09T05:09:29.205Z,100.00
2023-10-09T05:12:17.592Z,100.00
2023-10-09T05:15:08.672Z,100.00
2023-10-09T05:17:37.439Z,100.00
2023-10-09T05:20:24.437Z,100.00
2023-10-09T05:23:21.170Z,100.00
2023-10-09T05:26:20.271Z,100.00
2023-10-09T05:28:53.994Z,100.00
2023-10-09T05:31:57.677Z,100.00
2023-10-09T05:34:35.440Z,100.00
2023-10-09T05:37:19.133Z,100.00
2023-10-09T05:40:09.986Z,100.00
2023-10-09T05:42:44.701Z,100.00
2023-10-09T05:45:28.288Z,100.00
2023-10-09T05:48:06.900Z,100.00
2023-10-09T05:50:39.755Z,100.00
2023-10-09T05:53:33.421Z,100.00
2023-10-09T05:56:16.091Z,100.00
2023-10-09T05:59:07.191Z,100.00
2023-10-09T06:01:49.753Z,100.00
2023-10-09T06:04:21.384Z,100.00
2023-10-09T06:06:58.307Z,100.00
2023-10-09T06:09:51.546Z,100.00
2023-10-09T06:12:35.677Z,100.00
2023-10-09T06:15:20.255Z,100.00
2023-10-09T06:18:01.135Z,100.00
2023-10-09T06:21:01.089Z,100.00
2023-10-09T06:23:58.565Z,100.00
2023-10-09T06:26:34.465Z,100.00
2023-10-09T06:29:17.200Z,100.00
2023-10-09T06:32:18.128Z,100.00
2023-10-09T06:34:47.527Z,100.00
2023-10-09T06:37:35.681Z,100.00
2023-10-09T06:40:27.478Z,100.00
2023-10-09T06:43:08.530Z,100.00
2023-10-09T06:45:56.026Z,100.00
2023-10-09T06:48:39.274Z,100.00
2023-10-09T06:51:14.416Z,100.00
2023-10-09T06:53:56.872Z,100.00
2023-10-09T06:56:48.831Z,100.00
2023-10-09T06:59:23.145Z,100.00
2023-10-09T07:02:06.578Z,100.00
2023-10-09T07:04:56.208Z,100.00
2023-10-09T07:07:26.210Z,100.00
2023-10-09T07:10:09.523Z,100.00
2023-10-09T07:12:44.208Z,100.00
2023-10-09T07:15:29.655Z,100.00
2023-10-09T07:18:19.996Z,100.00
2023-10-09T07:21:00.631Z,100.00
2023-10-09T07:23:36.875Z,100.00
2023-10-09T07:26:24.934Z,100.00
2023-10-09T07:29:02.269Z,100.00
2023-10-09T07:31:41.638Z,100.00
2023-10-09T07:34:24.315Z,100.00
2023-10-09T07:36:58.100Z,100.00
2023-10-09T07:39:36.035Z,100.00
2023-10-09T07:42:35.086Z,100.00
2023-10-09T07:45:14.103Z,100.00
2023-10-09T07:48:02.408Z,100.00
2023-10-09T07:50:42.760Z,100.00
2023-10-09T07:53:19.524Z,100.00
2023-10-09T07:55:55.617Z,100.00
2023-10-09T07:58:28.992Z,100.00
2023-10-09T08:01:17.516Z,100.00
2023-10-09T08:03:58.852Z,100.00
2023-10-09T08:07:01.587Z,100.00
2023-10-09T08:09:50.460Z,100.00
2023-10-09T08:12:33.450Z,100.00
2023-10-09T08:15:22.236Z,100.00
2023-10-09T08:17:55.321Z,100.00
2023-10-09T08:20:37.915Z,100.00
2023-10-09T08:23:23.589Z,100.00
2023-10-09T08:25:58.576Z,100.00
2023-10-09T08:28:41.171Z,100.00
2023-10-09T08:31:36.188Z,100.00
2023-10-09T08:36:44.130Z,100.00
2023-10-09T08:39:26.696Z,100.00
2023-10-09T08:41:59.507Z,100.00
2023-10-09T08:44:30.926Z,100.00
2023-10-09T08:47:01.976Z,100.00
2023-10-09T08:49:36.908Z,100.00
2023-10-09T08:52:12.342Z,100.00
2023-10-09T08:54:42.963Z,100.00
2023-10-09T08:57:13.301Z,100.00
2023-10-09T08:59:48.056Z,100.00
2023-10-09T09:02:18.864Z,100.00
2023-10-09T09:04:52.066Z,100.00
2023-10-09T09:07:40.633Z,100.00
2023-10-09T09:10:22.896Z,100.00
2023-10-09T09:12:54.926Z,100.00
2023-10-09T09:15:28.326Z,100.00
2023-10-09T09:18:12.971Z,100.00
2023-10-09T09:20:47.236Z,100.00
2023-10-09T09:23:25.263Z,100.00
2023-10-09T09:26:00.827Z,100.00
2023-10-09T09:28:40.461Z,100.00
2023-10-09T09:31:15.699Z,100.00
2023-10-09T09:33:45.832Z,100.00
2023-10-09T09:36:16.148Z,100.00
2023-10-09T09:38:52.054Z,100.00
2023-10-09T09:41:27.973Z,100.00
2023-10-09T09:44:01.889Z,100.00
2023-10-09T09:46:38.549Z,100.00
2023-10-09T09:49:18.031Z,100.00
2023-10-09T09:51:48.646Z,100.00
2023-10-09T09:54:26.387Z,100.00
2023-10-09T09:56:58.899Z,100.00
2023-10-09T09:59:31.522Z,100.00
2023-10-09T10:02:08.433Z,100.00
2023-10-09T10:04:44.070Z,100.00
2023-10-09T10:07:17.713Z,100.00
2023-10-09T10:09:55.890Z,100.00
2023-10-09T10:13:01.839Z,100.00
2023-10-09T10:16:13.532Z,100.00
2023-10-09T10:19:08.468Z,100.00
2023-10-09T10:21:43.326Z,100.00
2023-10-09T10:25:00.041Z,100.00
2023-10-09T10:27:34.511Z,100.00
2023-10-09T10:30:38.245Z,100.00
2023-10-09T10:33:17.655Z,100.00
2023-10-09T10:35:54.256Z,100.00
2023-10-09T10:38:50.980Z,100.00
2023-10-09T10:41:23.916Z,100.00
2023-10-09T10:44:02.530Z,100.00
2023-10-09T10:46:39.408Z,100.00
2023-10-09T10:49:22.037Z,100.00
2023-10-09T10:52:03.181Z,100.00
2023-10-09T10:54:57.767Z,100.00
2023-10-09T10:57:54.084Z,100.00
2023-10-09T11:00:39.410Z,100.00
2023-10-09T11:03:21.443Z,100.00
2023-10-09T11:05:56.858Z,100.00
2023-10-09T11:08:34.101Z,100.00
2023-10-09T11:11:21.016Z,100.00
2023-10-09T11:14:07.293Z,100.00
2023-10-09T11:16:48.970Z,100.00
2023-10-09T11:19:33.217Z,100.00
2023-10-09T11:22:17.616Z,100.00
2023-10-09T11:24:48.452Z,100.00
2023-10-09T11:27:21.909Z,100.00
2023-10-09T11:30:07.024Z,100.00
2023-10-09T11:32:39.923Z,100.00
2023-10-09T11:35:23.224Z,100.00
2023-10-09T11:38:00.664Z,100.00
2023-10-09T11:40:49.101Z,100.00
2023-10-09T11:43:25.449Z,100.00
2023-10-09T11:45:58.807Z,100.00
2023-10-09T11:48:34.883Z,100.00
2023-10-09T11:51:17.400Z,100.00
2023-10-09T11:53:51.376Z,100.00
2023-10-09T11:56:21.970Z,100.00
2023-10-09T11:58:53.143Z,100.00
2023-10-09T12:01:24.624Z,100.00
2023-10-09T12:03:58.752Z,100.00
2023-10-09T12:06:33.848Z,100.00
2023-10-09T12:09:07.001Z,100.00
2023-10-09T12:11:40.893Z,100.00
2023-10-09T12:14:15.655Z,100.00
2023-10-09T12:16:51.460Z,100.00
2023-10-09T12:19:24.981Z,100.00
2023-10-09T12:21:57.237Z,100.00
2023-10-09T12:24:30.402Z,100.00
2023-10-09T12:27:01.567Z,100.00
2023-10-09T12:29:32.692Z,100.00
2023-10-09T12:32:04.965Z,100.00
2023-10-09T12:34:39.640Z,100.00
2023-10-09T12:37:10.248Z,100.00
2023-10-09T12:39:41.662Z,100.00
2023-10-09T12:42:13.427Z,100.00
2023-10-09T12:44:44.146Z,100.00
2023-10-09T12:47:16.179Z,99.98
2023-10-09T12:49:55.426Z,99.69
2023-10-09T12:52:31.369Z,99.24
2023-10-09T12:55:01.921Z,98.84
2023-10-09T12:57:32.467Z,98.70
2023-10-09T13:00:11.889Z,98.82
2023-10-09T13:02:46.005Z,98.48
2023-10-09T13:05:27.614Z,98.37
2023-10-09T13:07:59.199Z,98.47
2023-10-09T13:10:32.927Z,98.79
2023-10-09T13:13:07.825Z,98.77
2023-10-09T13:15:44.083Z,98.31
2023-10-09T13:18:16.263Z,97.81
2023-10-09T13:20:49.292Z,97.54
2023-10-09T13:23:19.845Z,96.79
2023-10-09T13:25:50.515Z,96.44
2023-10-09T13:28:22.219Z,96.47
2023-10-09T13:30:53.222Z,96.57
2023-10-09T13:33:23.661Z,95.87
2023-10-09T13:35:57.275Z,95.98
2023-10-09T13:38:27.282Z,95.60
2023-10-09T13:41:05.824Z,94.92
2023-10-09T13:43:36.353Z,95.05
2023-10-09T13:46:07.360Z,94.83
2023-10-09T13:48:39.652Z,94.87
2023-10-09T13:51:15.581Z,94.56
2023-10-09T13:53:49.352Z,94.21
2023-10-09T13:56:22.678Z,94.48
2023-10-09T13:58:57.018Z,94.43
2023-10-09T14:01:34.362Z,94.29
2023-10-09T14:04:07.663Z,94.26
2023-10-09T14:06:46.044Z,93.89
2023-10-09T14:09:29.831Z,93.55
2023-10-09T14:12:08.669Z,93.07
2023-10-09T14:14:48.544Z,93.03
2023-10-09T14:17:25.309Z,93.09
2023-10-09T14:20:02.464Z,93.48
2023-10-09T14:22:39.723Z,92.33
2023-10-09T14:25:16.861Z,92.41
2023-10-09T14:27:49.558Z,92.91
2023-10-09T14:30:32.086Z,93.10
2023-10-09T14:33:04.725Z,93.08
2023-10-09T14:35:37.426Z,92.59
2023-10-09T14:38:13.932Z,92.75
2023-10-09T14:40:49.395Z,92.95
2023-10-09T14:43:29.512Z,92.71
2023-10-09T14:46:00.085Z,92.92
2023-10-09T14:48:30.614Z,92.86
2023-10-09T14:51:06.346Z,92.88
2023-10-09T14:53:39.442Z,92.59
2023-10-09T14:56:10.891Z,92.63
2023-10-09T14:58:42.186Z,92.88
2023-10-09T15:01:20.997Z,93.03
2023-10-09T15:03:54.530Z,93.15
2023-10-09T15:06:25.208Z,93.38
2023-10-09T15:08:58.389Z,93.40
2023-10-09T15:11:30.125Z,93.92
2023-10-09T15:14:01.484Z,94.06
2023-10-09T15:16:32.306Z,94.08
2023-10-09T15:19:04.276Z,94.29
2023-10-09T15:21:35.933Z,94.24
2023-10-09T15:24:10.430Z,94.24
2023-10-09T15:26:41.396Z,94.25
2023-10-09T15:29:11.881Z,93.87
2023-10-09T15:31:43.305Z,93.96
2023-10-09T15:34:14.381Z,93.83
2023-10-09T15:36:45.405Z,93.96
2023-10-09T15:39:20.841Z,94.13
2023-10-09T15:41:52.025Z,94.47
2023-10-09T15:44:28.217Z,94.48
2023-10-09T15:47:01.600Z,94.44
2023-10-09T15:49:35.279Z,95.03
2023-10-09T15:52:09.339Z,94.96
2023-10-09T15:54:44.483Z,95.38
2023-10-09T15:57:15.129Z,95.48
2023-10-09T15:59:46.487Z,95.74
2023-10-09T16:02:18.628Z,95.96
2023-10-09T16:04:49.257Z,96.05
2023-10-09T16:07:19.780Z,96.20
2023-10-09T16:09:52.883Z,96.37
2023-10-09T16:12:24.706Z,96.95
2023-10-09T16:14:55.932Z,97.02
2023-10-09T16:17:27.417Z,97.54
2023-10-09T16:19:58.193Z,97.64
2023-10-09T16:22:29.596Z,98.09
2023-10-09T16:25:10.790Z,98.29
2023-10-09T16:27:41.484Z,98.53
2023-10-09T16:30:16.164Z,98.92
2023-10-09T16:32:46.691Z,99.07
2023-10-09T16:35:17.938Z,99.46
2023-10-09T16:37:50.999Z,100.00
2023-10-09T16:40:24.388Z,100.00
2023-10-09T16:42:55.050Z,100.00
2023-10-09T16:45:27.773Z,100.00
2023-10-09T16:48:00.505Z,100.00
2023-10-09T16:50:31.136Z,100.00
2023-10-09T16:53:02.115Z,100.00
2023-10-09T16:55:35.366Z,100.00
2023-10-09T16:58:05.824Z,100.00
2023-10-09T17:00:36.626Z,100.00
2023-10-09T17:03:09.671Z,100.00
2023-10-09T17:05:56.730Z,100.00
2023-10-09T17:08:31.247Z,100.00
2023-10-09T17:11:07.859Z,100.00
2023-10-09T17:13:38.798Z,100.00
2023-10-09T17:16:18.726Z,100.00
2023-10-09T17:18:50.928Z,100.00
2023-10-09T17:21:24.561Z,100.00
2023-10-09T17:23:59.763Z,100.00
2023-10-09T17:26:33.431Z,100.00
2023-10-09T17:29:04.189Z,100.00
2023-10-09T17:31:36.836Z,100.00
2023-10-09T17:34:08.927Z,100.00
2023-10-09T17:36:39.901Z,100.00
2023-10-09T17:39:14.219Z,100.00
2023-10-09T17:41:47.259Z,100.00
2023-10-09T17:44:20.270Z,100.00
2023-10-09T17:46:51.272Z,100.00
2023-10-09T17:49:25.739Z,100.00
2023-10-09T17:51:56.502Z,100.00
2023-10-09T17:54:29.470Z,100.00
2023-10-09T17:57:03.740Z,100.00
2023-10-09T17:59:34.691Z,100.00
2023-10-09T18:02:05.800Z,100.00
2023-10-09T18:04:36.751Z,100.00
2023-10-09T18:07:07.881Z,100.00
2023-10-09T18:09:41.174Z,100.00
2023-10-09T18:12:16.053Z,100.00
2023-10-09T18:14:48.215Z,100.00
2023-10-09T18:17:21.203Z,100.00
2023-10-09T18:19:53.139Z,100.00
2023-10-09T18:22:25.579Z,100.00
2023-10-09T18:24:56.845Z,100.00
2023-10-09T18:27:30.345Z,100.00
2023-10-09T18:30:00.806Z,100.00
2023-10-09T18:32:32.335Z,100.00
2023-10-09T18:35:02.883Z,100.00
2023-10-09T18:37:33.336Z,100.00
2023-10-09T18:40:07.469Z,100.00
2023-10-09T18:42:41.730Z,100.00
2023-10-09T18:45:16.780Z,100.00
2023-10-09T18:47:47.373Z,100.00
2023-10-09T18:50:18.382Z,100.00
2023-10-09T18:52:50.505Z,100.00
2023-10-09T18:55:22.049Z,100.00
2023-10-09T18:57:55.120Z,100.00
2023-10-09T19:00:31.901Z,100.00
2023-10-09T19:03:02.760Z,100.00
2023-10-09T19:05:33.305Z,100.00
2023-10-09T19:08:04.436Z,100.00
2023-10-09T19:10:35.017Z,100.00
2023-10-09T19:13:11.503Z,100.00
2023-10-09T19:15:42.639Z,100.00
2023-10-09T19:18:13.802Z,100.00
2023-10-09T19:20:45.170Z,100.00
2023-10-09T19:23:15.705Z,100.00
2023-10-09T19:25:47.778Z,100.00
2023-10-09T19:28:20.982Z,100.00
2023-10-09T19:30:53.165Z,100.00
2023-10-09T19:33:23.675Z,100.00
2023-10-09T19:35:54.153Z,100.00
2023-10-09T19:38:24.845Z,100.00
2023-10-09T19:40:57.352Z,100.00
2023-10-09T19:43:30.372Z,100.00
2023-10-09T19:46:06.168Z,100.00
2023-10-09T19:48:37.091Z,100.00
2023-10-09T19:51:08.936Z,100.00
2023-10-09T19:53:40.161Z,100.00
2023-10-09T19:56:12.224Z,100.00
2023-10-09T19:58:47.541Z,100.00
2023-10-09T20:01:20.012Z,100.00
2023-10-09T20:03:50.663Z,100.00
2023-10-09T20:06:21.139Z,100.00
2023-10-09T20:08:51.828Z,100.00
2023-10-09T20:11:24.404Z,100.00
2023-10-09T20:13:57.539Z,100.00
2023-10-09T20:16:28.404Z,100.00
2023-10-09T20:18:58.934Z,100.00
2023-10-09T20:21:29.473Z,100.00
2023-10-09T20:24:02.597Z,100.00
2023-10-09T20:26:36.016Z,100.00
2023-10-09T20:29:09.214Z,100.00
2023-10-09T20:31:40.916Z,100.00
2023-10-09T20:34:13.266Z,100.00
2023-10-09T20:36:45.004Z,100.00
2023-10-09T20:39:17.893Z,100.00
2023-10-09T20:41:48.554Z,100.00
2023-10-09T20:44:21.810Z,100.00
2023-10-09T20:46:55.316Z,100.00
2023-10-09T20:49:25.801Z,100.00
2023-10-09T20:51:57.950Z,100.00
2023-10-09T20:54:29.351Z,100.00
2023-10-09T20:56:59.845Z,100.00
2023-10-09T20:59:34.357Z,100.00
2023-10-09T21:02:07.761Z,100.00
2023-10-09T21:04:38.333Z,100.00
2023-10-09T21:07:08.840Z,100.00
2023-10-09T21:09:39.283Z,100.00
2023-10-09T21:12:12.973Z,100.00
2023-10-09T21:14:47.159Z,100.00
2023-10-09T21:17:18.788Z,100.00
2023-10-09T21:19:52.213Z,100.00
2023-10-09T21:22:22.804Z,100.00
2023-10-09T21:24:54.715Z,100.00
2023-10-09T21:27:25.537Z,100.00
2023-10-09T21:29:58.574Z,100.00
2023-10-09T21:32:29.213Z,100.00
2023-10-09T21:35:00.285Z,100.00
2023-10-09T21:37:30.780Z,100.00
2023-10-09T21:40:04.189Z,100.00
2023-10-09T21:42:34.658Z,100.00
2023-10-09T21:45:09.261Z,100.00
2023-10-09T21:47:39.844Z,100.00
2023-10-09T21:50:11.526Z,100.00
2023-10-09T21:52:42.452Z,100.00
2023-10-09T21:55:13.677Z,100.00
2023-10-09T21:57:45.046Z,100.00
2023-10-09T22:00:19.986Z,100.00
2023-10-09T22:02:51.282Z,100.00
2023-10-09T22:05:22.182Z,100.00
2023-10-09T22:07:53.218Z,100.00
2023-10-09T22:10:23.724Z,100.00
2023-10-09T22:12:55.024Z,100.00
2023-10-09T22:15:28.233Z,100.00
2023-10-09T22:17:58.686Z,100.00
2023-10-09T22:20:31.599Z,100.00
2023-10-09T22:23:01.988Z,100.00
2023-10-09T22:25:32.313Z,100.00
2023-10-09T22:28:05.049Z,100.00
2023-10-09T22:30:39.603Z,100.00
2023-10-09T22:33:13.790Z,100.00
2023-10-09T22:35:46.356Z,100.00
2023-10-09T22:38:17.928Z,100.00
2023-10-09T22:40:50.164Z,100.00
2023-10-09T22:43:21.929Z,100.00
2023-10-09T22:45:58.193Z,100.00
2023-10-09T22:48:30.527Z,100.00
2023-10-09T22:51:11.341Z,100.00
2023-10-09T22:53:47.976Z,100.00
2023-10-09T22:56:22.392Z,100.00
2023-10-09T22:58:56.745Z,100.00
2023-10-09T23:01:33.448Z,100.00
2023-10-09T23:04:19.533Z,100.00
2023-10-09T23:06:49.837Z,100.00
2023-10-09T23:09:32.423Z,100.00
2023-10-09T23:12:08.785Z,100.00
2023-10-09T23:14:39.242Z,100.00
2023-10-09T23:17:19.425Z,100.00
2023-10-09T23:19:56.330Z,100.00
2023-10-09T23:22:38.985Z,100.00
2023-10-09T23:25:19.273Z,100.00
2023-10-09T23:27:52.071Z,100.00
2023-10-09T23:30:29.969Z,100.00
2023-10-09T23:33:16.378Z,100.00
2023-10-09T23:35:52.394Z,100.00
2023-10-09T23:38:33.407Z,100.00
2023-10-09T23:41:10.818Z,100.00
2023-10-09T23:43:48.567Z,100.00
2023-10-09T23:46:25.187Z,100.00
2023-10-09T23:48:59.237Z,100.00
2023-10-09T23:51:30.314Z,100.00
2023-10-09T23:54:03.021Z,100.00
2023-10-09T23:56:51.418Z,100.00
2023-10-09T23:59:23.297Z,100.00
